createdAt,value
2022-08-23T00:01:35.793Z,18.30
2022-08-23T00:04:07.775Z,18.30
2022-08-23T00:06:35.672Z,18.30
2022-08-23T00:09:03.847Z,18.20
2022-08-23T00:11:33.702Z,18.20
2022-08-23T00:14:08.362Z,18.10
2022-08-23T00:16:36.312Z,18.00
2022-08-23T00:19:05.855Z,18.00
2022-08-23T00:21:36.446Z,17.90
2022-08-23T00:24:06.160Z,17.90
2022-08-23T00:26:55.696Z,17.80
2022-08-23T00:29:26.060Z,17.80
2022-08-23T00:31:53.736Z,17.70
2022-08-23T00:34:21.922Z,17.60
2022-08-23T00:36:50.698Z,17.60
2022-08-23T00:39:19.248Z,17.60
2022-08-23T00:41:49.291Z,17.50
2022-08-23T00:44:51.604Z,17.50
2022-08-23T00:47:43.185Z,17.40
2022-08-23T00:50:23.864Z,17.30
2022-08-23T00:53:03.831Z,17.30
2022-08-23T00:55:33.109Z,17.30
2022-08-23T00:58:01.417Z,17.20
2022-08-23T01:00:29.797Z,17.10
2022-08-23T01:02:57.845Z,17.10
2022-08-23T01:05:32.000Z,17.00
2022-08-23T01:08:00.742Z,17.00
2022-08-23T01:10:37.523Z,17.00
2022-08-23T01:13:16.803Z,16.90
2022-08-23T01:16:01.157Z,16.90
2022-08-23T01:18:30.857Z,16.90
2022-08-23T01:21:14.672Z,16.90
2022-08-23T01:23:44.627Z,16.80
2022-08-23T01:26:14.951Z,16.80
2022-08-23T01:28:51.705Z,16.70
2022-08-23T01:31:21.739Z,16.70
2022-08-23T01:34:02.607Z,16.70
2022-08-23T01:36:31.108Z,16.60
2022-08-23T01:38:58.575Z,16.60
2022-08-23T01:41:26.325Z,16.50
2022-08-23T01:43:54.020Z,16.50
2022-08-23T01:46:26.247Z,16.40
2022-08-23T01:48:58.407Z,16.40
2022-08-23T01:51:29.714Z,16.40
2022-08-23T01:53:58.152Z,16.30
2022-08-23T01:56:38.666Z,16.30
2022-08-23T01:59:13.891Z,16.30
2022-08-23T02:01:47.278Z,16.20
2022-08-23T02:04:14.871Z,16.20
2022-08-23T02:06:42.466Z,16.20
2022-08-23T02:09:17.393Z,16.10
2022-08-23T02:11:47.143Z,16.10
2022-08-23T02:14:19.164Z,16.10
2022-08-23T02:16:53.740Z,16.00
2022-08-23T02:19:34.459Z,16.00
2022-08-23T02:22:05.540Z,16.00
2022-08-23T02:24:34.288Z,15.90
2022-08-23T02:27:05.167Z,15.90
2022-08-23T02:29:39.066Z,15.90
2022-08-23T02:32:11.058Z,15.80
2022-08-23T02:34:40.771Z,15.80
2022-08-23T02:37:09.854Z,15.80
2022-08-23T02:39:38.845Z,15.70
2022-08-23T02:42:08.402Z,15.70
2022-08-23T02:44:40.632Z,15.70
2022-08-23T02:47:09.021Z,15.70
2022-08-23T02:49:38.579Z,15.60
2022-08-23T02:52:07.349Z,15.60
2022-08-23T02:54:36.430Z,15.60
2022-08-23T02:57:04.535Z,15.50
2022-08-23T02:59:32.499Z,15.50
2022-08-23T03:02:00.140Z,15.50
2022-08-23T03:04:32.779Z,15.50
2022-08-23T03:07:00.402Z,15.40
2022-08-23T03:09:28.326Z,15.40
2022-08-23T03:11:55.640Z,15.40
2022-08-23T03:14:25.117Z,15.40
2022-08-23T03:16:53.186Z,15.30
2022-08-23T03:19:24.891Z,15.30
2022-08-23T03:21:52.209Z,15.30
2022-08-23T03:24:20.627Z,15.20
2022-08-23T03:26:48.360Z,15.20
2022-08-23T03:29:17.503Z,15.20
2022-08-23T03:32:15.543Z,15.10
2022-08-23T03:34:45.272Z,15.10
2022-08-23T03:37:12.588Z,15.10
2022-08-23T03:39:40.117Z,15.10
2022-08-23T03:42:08.627Z,15.00
2022-08-23T03:44:37.240Z,15.00
2022-08-23T03:47:05.943Z,15.00
2022-08-23T03:49:34.148Z,15.00
2022-08-23T03:52:01.815Z,14.90
2022-08-23T03:54:32.408Z,14.90
2022-08-23T03:57:02.967Z,14.90
2022-08-23T03:59:35.266Z,14.80
2022-08-23T04:02:05.997Z,14.80
2022-08-23T04:04:33.664Z,14.80
2022-08-23T04:07:22.360Z,14.80
2022-08-23T04:09:55.265Z,14.80
2022-08-23T04:12:25.540Z,14.70
2022-08-23T04:14:53.689Z,14.70
2022-08-23T04:17:22.384Z,14.70
2022-08-23T04:19:51.361Z,14.70
2022-08-23T04:22:20.507Z,14.70
2022-08-23T04:24:48.155Z,14.60
2022-08-23T04:27:16.988Z,14.60
2022-08-23T04:29:46.932Z,14.60
2022-08-23T04:32:15.299Z,14.60
2022-08-23T04:34:55.748Z,14.60
2022-08-23T04:37:23.483Z,14.60
2022-08-23T04:40:09.689Z,14.60
2022-08-23T04:42:43.206Z,14.60
2022-08-23T04:45:12.301Z,14.60
2022-08-23T04:47:44.771Z,14.60
2022-08-23T04:50:12.945Z,14.60
2022-08-23T04:53:12.048Z,14.70
2022-08-23T04:55:52.082Z,14.70
2022-08-23T04:58:19.579Z,14.80
2022-08-23T05:00:52.345Z,14.90
2022-08-23T05:03:25.723Z,15.00
2022-08-23T05:05:54.331Z,15.20
2022-08-23T05:08:27.723Z,15.40
2022-08-23T05:10:55.610Z,15.70
2022-08-23T05:13:23.735Z,16.10
2022-08-23T05:15:52.640Z,16.40
2022-08-23T05:18:23.569Z,16.80
2022-08-23T05:20:51.595Z,17.20
2022-08-23T05:23:19.739Z,17.70
2022-08-23T05:26:01.940Z,18.20
2022-08-23T05:28:42.676Z,18.80
2022-08-23T05:31:13.764Z,19.40
2022-08-23T05:33:46.568Z,20.10
2022-08-23T05:36:19.222Z,20.70
2022-08-23T05:38:47.676Z,21.40
2022-08-23T05:41:16.820Z,21.90
2022-08-23T05:43:48.231Z,22.50
2022-08-23T05:46:20.007Z,23.10
2022-08-23T05:48:57.792Z,23.60
2022-08-23T05:51:31.837Z,24.20
2022-08-23T05:54:06.671Z,24.90
2022-08-23T05:56:37.815Z,25.40
2022-08-23T05:59:12.459Z,26.00
2022-08-23T06:01:42.579Z,26.50
2022-08-23T06:04:15.409Z,26.90
2022-08-23T06:06:44.721Z,27.40
2022-08-23T06:09:15.643Z,27.80
2022-08-23T06:11:46.295Z,28.30
2022-08-23T06:14:15.333Z,28.70
2022-08-23T06:16:47.600Z,29.00
2022-08-23T06:19:19.467Z,29.40
2022-08-23T06:21:51.340Z,29.80
2022-08-23T06:24:28.360Z,30.20
2022-08-23T06:27:16.652Z,30.50
2022-08-23T06:29:46.120Z,30.80
2022-08-23T06:32:31.900Z,31.00
2022-08-23T06:35:37.791Z,31.40
2022-08-23T06:38:19.595Z,31.60
2022-08-23T06:41:05.163Z,31.90
2022-08-23T06:43:48.897Z,32.20
2022-08-23T06:46:24.026Z,32.40
2022-08-23T06:48:53.371Z,32.50
2022-08-23T06:51:28.629Z,32.70
2022-08-23T06:54:14.079Z,32.80
2022-08-23T06:56:44.967Z,33.10
2022-08-23T06:59:19.906Z,33.30
2022-08-23T07:02:26.305Z,33.50
2022-08-23T07:04:56.585Z,33.80
2022-08-23T07:07:37.620Z,34.00
2022-08-23T07:10:10.796Z,34.20
2022-08-23T07:12:42.732Z,34.50
2022-08-23T07:15:12.792Z,34.60
2022-08-23T07:17:43.919Z,34.70
2022-08-23T07:20:11.598Z,34.80
2022-08-23T07:22:41.585Z,34.90
2022-08-23T07:25:10.695Z,35.00
2022-08-23T07:27:39.707Z,35.10
2022-08-23T07:30:09.328Z,35.30
2022-08-23T07:32:40.458Z,35.50
2022-08-23T07:35:29.404Z,35.60
2022-08-23T07:37:59.444Z,35.80
2022-08-23T07:40:35.528Z,36.00
2022-08-23T07:43:06.651Z,36.00
2022-08-23T07:45:39.227Z,36.20
2022-08-23T07:48:10.183Z,36.30
2022-08-23T07:50:58.494Z,36.40
2022-08-23T07:53:38.101Z,36.50
2022-08-23T07:56:14.904Z,36.60
2022-08-23T07:59:01.635Z,36.70
2022-08-23T08:01:41.155Z,36.90
2022-08-23T08:04:09.295Z,37.00
2022-08-23T08:06:46.348Z,37.00
2022-08-23T08:09:15.952Z,37.10
2022-08-23T08:11:47.438Z,37.20
2022-08-23T08:14:17.552Z,37.30
2022-08-23T08:16:58.672Z,37.40
2022-08-23T08:19:48.659Z,37.50
2022-08-23T08:22:57.258Z,37.60
2022-08-23T08:25:35.931Z,37.80
2022-08-23T08:28:07.383Z,38.00
2022-08-23T08:30:37.128Z,38.10
2022-08-23T08:33:05.551Z,38.10
2022-08-23T08:35:33.940Z,38.00
2022-08-23T08:38:03.055Z,38.00
2022-08-23T08:40:34.622Z,37.90
2022-08-23T08:43:29.237Z,37.90
2022-08-23T08:46:13.710Z,37.70
2022-08-23T08:48:46.775Z,37.70
2022-08-23T08:51:44.589Z,37.70
2022-08-23T08:54:16.964Z,37.60
2022-08-23T08:56:52.412Z,37.50
2022-08-23T09:00:00.587Z,37.50
2022-08-23T09:02:33.707Z,37.40
2022-08-23T09:05:12.164Z,37.40
2022-08-23T09:07:49.702Z,37.30
2022-08-23T09:10:33.920Z,37.40
2022-08-23T09:13:26.590Z,37.40
2022-08-23T09:16:17.597Z,37.50
2022-08-23T09:18:46.012Z,37.50
2022-08-23T09:21:15.708Z,37.30
2022-08-23T09:23:54.300Z,37.30
2022-08-23T09:26:41.088Z,37.30
2022-08-23T09:29:40.236Z,37.30
2022-08-23T09:32:28.823Z,37.20
2022-08-23T09:35:26.423Z,37.10
2022-08-23T09:38:23.084Z,36.90
2022-08-23T09:40:56.657Z,36.60
2022-08-23T09:43:27.714Z,36.40
2022-08-23T09:45:59.587Z,36.30
2022-08-23T09:48:39.902Z,36.20
2022-08-23T09:51:26.598Z,36.00
2022-08-23T09:54:26.127Z,35.90
2022-08-23T09:56:58.393Z,35.60
2022-08-23T09:59:26.528Z,35.30
2022-08-23T10:01:59.769Z,35.00
2022-08-23T10:04:29.875Z,34.60
2022-08-23T10:06:57.788Z,34.20
2022-08-23T10:09:31.438Z,33.80
2022-08-23T10:12:01.232Z,33.20
2022-08-23T10:14:33.996Z,32.80
2022-08-23T10:17:11.108Z,32.40
2022-08-23T10:20:17.079Z,31.90
2022-08-23T10:23:29.509Z,31.50
2022-08-23T10:26:00.980Z,31.00
2022-08-23T10:29:13.161Z,30.60
2022-08-23T10:31:44.453Z,30.30
2022-08-23T10:34:17.151Z,29.90
2022-08-23T10:37:15.680Z,29.60
2022-08-23T10:40:07.631Z,29.40
2022-08-23T10:42:53.310Z,29.30
2022-08-23T10:45:36.644Z,29.20
2022-08-23T10:48:28.237Z,29.00
2022-08-23T10:51:03.486Z,29.00
2022-08-23T10:53:47.230Z,28.90
2022-08-23T10:56:19.365Z,28.80
2022-08-23T10:59:07.667Z,28.70
2022-08-23T11:01:45.709Z,28.70
2022-08-23T11:04:27.095Z,28.70
2022-08-23T11:07:19.555Z,28.70
2022-08-23T11:09:55.266Z,28.60
2022-08-23T11:12:29.423Z,28.50
2022-08-23T11:14:57.838Z,28.40
2022-08-23T11:17:41.006Z,28.30
2022-08-23T11:20:12.255Z,28.30
2022-08-23T11:22:59.985Z,28.20
2022-08-23T11:25:27.708Z,28.20
2022-08-23T11:28:25.760Z,28.10
2022-08-23T11:30:58.586Z,28.00
2022-08-23T11:33:33.738Z,28.00
2022-08-23T11:36:18.200Z,28.00
2022-08-23T11:38:48.585Z,27.90
2022-08-23T11:41:20.208Z,27.90
2022-08-23T11:43:56.033Z,27.90
2022-08-23T11:46:27.594Z,27.90
2022-08-23T11:49:36.375Z,27.90
2022-08-23T11:52:16.009Z,27.90
2022-08-23T11:55:04.049Z,27.90
2022-08-23T11:57:54.719Z,27.90
2022-08-23T12:00:59.824Z,27.90
2022-08-23T12:03:51.347Z,27.90
2022-08-23T12:06:42.192Z,28.00
2022-08-23T12:09:12.224Z,28.00
2022-08-23T12:11:55.874Z,28.10
2022-08-23T12:14:32.322Z,28.10
2022-08-23T12:17:06.156Z,28.10
2022-08-23T12:19:48.257Z,28.20
2022-08-23T12:22:29.861Z,28.20
2022-08-23T12:25:08.287Z,28.30
2022-08-23T12:27:44.611Z,28.30
2022-08-23T12:30:27.243Z,28.30
2022-08-23T12:32:54.788Z,28.40
2022-08-23T12:35:47.074Z,28.40
2022-08-23T12:38:36.424Z,28.40
2022-08-23T12:41:18.042Z,28.40
2022-08-23T12:44:01.784Z,28.40
2022-08-23T12:46:33.482Z,28.40
2022-08-23T12:49:01.271Z,28.40
2022-08-23T12:51:29.068Z,28.50
2022-08-23T12:53:56.919Z,28.50
2022-08-23T12:56:31.689Z,28.50
2022-08-23T12:59:04.627Z,28.60
2022-08-23T13:01:36.583Z,28.50
2022-08-23T13:04:09.236Z,28.50
2022-08-23T13:06:47.464Z,28.60
2022-08-23T13:09:19.276Z,28.60
2022-08-23T13:11:49.200Z,28.60
2022-08-23T13:14:45.556Z,28.70
2022-08-23T13:17:18.824Z,28.70
2022-08-23T13:19:49.555Z,28.80
2022-08-23T13:22:19.948Z,28.90
2022-08-23T13:25:28.660Z,28.90
2022-08-23T13:27:58.323Z,28.90
2022-08-23T13:30:29.688Z,29.00
2022-08-23T13:33:09.044Z,29.00
2022-08-23T13:35:45.149Z,28.90
2022-08-23T13:38:21.993Z,28.90
2022-08-23T13:41:32.538Z,28.90
2022-08-23T13:44:08.788Z,28.90
2022-08-23T13:46:44.949Z,28.90
2022-08-23T13:49:22.262Z,28.80
2022-08-23T13:54:50.769Z,28.80
2022-08-23T13:57:21.640Z,28.80
2022-08-23T13:59:53.188Z,28.80
2022-08-23T14:02:23.236Z,28.70
2022-08-23T14:04:51.260Z,28.70
2022-08-23T14:07:19.375Z,28.70
2022-08-23T14:09:48.157Z,28.70
2022-08-23T14:12:21.764Z,28.60
2022-08-23T14:14:51.056Z,28.70
2022-08-23T14:17:20.550Z,28.60
2022-08-23T14:20:32.931Z,28.60
2022-08-23T14:22:36.312Z,28.60
2022-08-23T14:25:05.062Z,28.60
2022-08-23T14:27:33.338Z,28.70
2022-08-23T14:30:01.144Z,28.70
2022-08-23T14:32:28.771Z,28.70
2022-08-23T14:34:56.668Z,28.70
2022-08-23T14:40:12.865Z,28.70
2022-08-23T14:42:40.868Z,28.70
2022-08-23T14:45:09.203Z,28.70
2022-08-23T14:47:36.687Z,28.70
2022-08-23T14:50:07.921Z,28.70
2022-08-23T14:52:40.666Z,28.60
2022-08-23T14:55:08.675Z,28.60
2022-08-23T14:57:36.111Z,28.60
2022-08-23T15:00:06.736Z,28.50
2022-08-23T15:02:36.372Z,28.50
2022-08-23T15:05:04.865Z,28.50
2022-08-23T15:07:32.606Z,28.50
2022-08-23T15:10:00.052Z,28.50
2022-08-23T15:15:21.767Z,28.50
2022-08-23T15:17:55.606Z,28.50
2022-08-23T15:20:26.546Z,28.50
2022-08-23T15:23:03.034Z,28.40
2022-08-23T15:25:33.451Z,28.50
2022-08-23T15:28:05.062Z,28.50
2022-08-23T15:30:34.227Z,28.50
2022-08-23T15:33:01.948Z,28.40
2022-08-23T15:35:34.145Z,28.40
2022-08-23T15:38:01.945Z,28.40
2022-08-23T15:40:29.634Z,28.40
2022-08-23T15:42:57.394Z,28.40
2022-08-23T15:45:25.095Z,28.40
2022-08-23T15:47:58.880Z,28.30
2022-08-23T15:50:30.936Z,28.30
2022-08-23T15:52:58.542Z,28.30
2022-08-23T15:55:31.059Z,28.30
2022-08-23T15:57:58.771Z,28.40
2022-08-23T16:00:27.491Z,28.30
2022-08-23T16:03:19.251Z,28.30
2022-08-23T16:05:46.273Z,28.30
2022-08-23T16:08:32.228Z,28.30
2022-08-23T16:11:01.974Z,28.30
2022-08-23T16:13:29.595Z,28.20
2022-08-23T16:15:57.734Z,28.20
2022-08-23T16:18:25.359Z,28.20
2022-08-23T16:20:54.533Z,28.20
2022-08-23T16:23:22.877Z,28.20
2022-08-23T16:25:50.650Z,28.10
2022-08-23T16:28:18.235Z,28.10
2022-08-23T16:30:45.835Z,28.00
2022-08-23T16:33:13.972Z,28.00
2022-08-23T16:35:41.318Z,27.90
2022-08-23T16:38:09.159Z,27.90
2022-08-23T16:40:36.775Z,27.80
2022-08-23T16:43:04.415Z,27.80
2022-08-23T16:45:31.758Z,27.70
2022-08-23T16:47:59.880Z,27.70
2022-08-23T16:50:27.582Z,27.70
2022-08-23T16:52:55.235Z,27.60
2022-08-23T16:55:22.848Z,27.50
2022-08-23T16:57:50.438Z,27.50
2022-08-23T17:00:17.894Z,27.50
2022-08-23T17:02:45.578Z,27.50
2022-08-23T17:05:16.331Z,27.30
2022-08-23T17:07:44.615Z,27.30
2022-08-23T17:10:15.180Z,27.20
2022-08-23T17:12:47.062Z,27.20
2022-08-23T17:15:19.771Z,27.10
2022-08-23T17:17:49.032Z,27.10
2022-08-23T17:20:17.123Z,27.00
2022-08-23T17:22:44.911Z,26.90
2022-08-23T17:25:15.157Z,26.80
2022-08-23T17:27:46.077Z,26.80
2022-08-23T17:30:18.225Z,26.80
2022-08-23T17:32:49.252Z,26.70
2022-08-23T17:35:19.795Z,26.70
2022-08-23T17:37:47.250Z,26.60
2022-08-23T17:40:21.167Z,26.70
2022-08-23T17:42:49.850Z,26.50
2022-08-23T17:45:18.166Z,26.50
2022-08-23T17:47:46.728Z,26.40
2022-08-23T17:50:15.463Z,26.40
2022-08-23T17:52:43.067Z,26.30
2022-08-23T17:55:11.288Z,26.30
2022-08-23T17:57:40.778Z,26.20
2022-08-23T18:00:08.881Z,26.10
2022-08-23T18:02:38.086Z,26.10
2022-08-23T18:05:07.826Z,26.00
2022-08-23T18:07:35.367Z,26.00
2022-08-23T18:10:05.184Z,25.90
2022-08-23T18:12:33.076Z,25.90
2022-08-23T18:15:04.227Z,25.80
2022-08-23T18:17:33.275Z,25.80
2022-08-23T18:20:01.029Z,25.70
2022-08-23T18:22:29.319Z,25.70
2022-08-23T18:24:56.822Z,25.60
2022-08-23T18:27:42.804Z,25.60
2022-08-23T18:30:11.290Z,25.40
2022-08-23T18:32:40.032Z,25.40
2022-08-23T18:35:08.929Z,25.30
2022-08-23T18:37:36.709Z,25.10
2022-08-23T18:40:09.627Z,25.10
2022-08-23T18:42:40.085Z,25.00
2022-08-23T18:45:08.650Z,24.80
2022-08-23T18:47:36.119Z,24.80
2022-08-23T18:50:06.892Z,24.80
2022-08-23T18:52:34.323Z,24.60
2022-08-23T18:55:01.678Z,24.50
2022-08-23T18:57:29.238Z,24.40
2022-08-23T18:59:56.456Z,24.30
2022-08-23T19:02:24.357Z,24.20
2022-08-23T19:04:53.136Z,24.10
2022-08-23T19:07:20.390Z,24.00
2022-08-23T19:09:47.651Z,24.00
2022-08-23T19:12:14.946Z,24.00
2022-08-23T19:14:42.400Z,23.80
2022-08-23T19:17:10.129Z,23.70
2022-08-23T19:19:37.703Z,23.80
2022-08-23T19:22:05.435Z,23.60
2022-08-23T19:24:33.231Z,23.50
2022-08-23T19:27:01.307Z,23.40
2022-08-23T19:29:28.709Z,23.30
2022-08-23T19:31:56.630Z,23.30
2022-08-23T19:34:24.272Z,23.20
2022-08-23T19:37:00.754Z,23.10
2022-08-23T19:39:29.825Z,23.00
2022-08-23T19:41:57.632Z,22.90
2022-08-23T19:44:25.166Z,22.90
2022-08-23T19:46:55.801Z,22.80
2022-08-23T19:49:23.911Z,22.70
2022-08-23T19:51:51.504Z,22.60
2022-08-23T19:54:19.091Z,22.60
2022-08-23T19:56:50.082Z,22.50
2022-08-23T19:59:20.663Z,22.40
2022-08-23T20:01:49.943Z,22.40
2022-08-23T20:04:18.295Z,22.30
2022-08-23T20:06:46.821Z,22.30
2022-08-23T20:09:15.160Z,22.20
2022-08-23T20:11:42.516Z,22.10
2022-08-23T20:14:10.279Z,22.00
2022-08-23T20:16:40.992Z,22.00
2022-08-23T20:19:10.215Z,21.90
2022-08-23T20:21:40.247Z,21.80
2022-08-23T20:24:11.481Z,21.80
2022-08-23T20:26:45.116Z,21.80
2022-08-23T20:29:17.185Z,21.60
2022-08-23T20:32:06.007Z,21.60
2022-08-23T20:34:34.481Z,21.50
2022-08-23T20:37:05.555Z,21.40
2022-08-23T20:39:33.424Z,21.40
2022-08-23T20:42:00.763Z,21.30
2022-08-23T20:44:28.303Z,21.30
2022-08-23T20:47:02.260Z,21.20
2022-08-23T20:49:30.343Z,21.10
2022-08-23T20:51:57.755Z,21.00
2022-08-23T20:54:25.552Z,21.00
2022-08-23T20:56:52.884Z,21.00
2022-08-23T20:59:20.974Z,20.90
2022-08-23T21:01:49.517Z,20.80
2022-08-23T21:04:17.863Z,20.80
2022-08-23T21:06:50.526Z,20.70
2022-08-23T21:09:22.577Z,20.70
2022-08-23T21:11:52.407Z,20.60
2022-08-23T21:14:20.762Z,20.60
2022-08-23T21:16:48.211Z,20.50
2022-08-23T21:19:16.351Z,20.50
2022-08-23T21:21:44.286Z,20.40
2022-08-23T21:24:12.431Z,20.40
2022-08-23T21:26:40.659Z,20.30
2022-08-23T21:29:08.922Z,20.30
2022-08-23T21:31:37.056Z,20.30
2022-08-23T21:34:04.847Z,20.20
2022-08-23T21:36:32.217Z,20.20
2022-08-23T21:38:59.632Z,20.10
2022-08-23T21:41:39.824Z,20.10
2022-08-23T21:44:11.488Z,20.10
2022-08-23T21:46:39.454Z,20.10
2022-08-23T21:49:07.820Z,20.00
2022-08-23T21:51:36.159Z,19.90
2022-08-23T21:54:04.101Z,19.90
2022-08-23T21:56:31.853Z,19.90
2022-08-23T21:59:00.889Z,19.90
2022-08-23T22:01:30.884Z,19.80
2022-08-23T22:03:59.079Z,19.80
2022-08-23T22:06:27.320Z,19.70
2022-08-23T22:08:55.454Z,19.70
2022-08-23T22:11:23.929Z,19.70
2022-08-23T22:13:53.779Z,19.60
2022-08-23T22:16:21.599Z,19.60
2022-08-23T22:18:49.308Z,19.60
2022-08-23T22:21:17.284Z,19.50
2022-08-23T22:23:44.826Z,19.50
2022-08-23T22:26:13.893Z,19.50
2022-08-23T22:28:44.412Z,19.40
2022-08-23T22:31:13.861Z,19.40
2022-08-23T22:33:42.650Z,19.30
2022-08-23T22:36:14.236Z,19.30
2022-08-23T22:38:42.241Z,19.30
2022-08-23T22:41:10.487Z,19.20
2022-08-23T22:43:37.720Z,19.20
2022-08-23T22:46:05.153Z,19.20
2022-08-23T22:48:37.042Z,19.10
2022-08-23T22:51:06.351Z,19.10
2022-08-23T22:53:35.914Z,19.00
2022-08-23T22:56:04.858Z,19.00
2022-08-23T22:58:33.336Z,19.00
2022-08-23T23:01:02.043Z,18.90
2022-08-23T23:03:36.648Z,18.90
2022-08-23T23:06:06.108Z,18.90
2022-08-23T23:08:33.467Z,18.90
2022-08-23T23:11:07.174Z,18.80
2022-08-23T23:13:35.020Z,18.80
2022-08-23T23:16:06.761Z,18.80
2022-08-23T23:18:34.886Z,18.70
2022-08-23T23:21:04.238Z,18.70
2022-08-23T23:23:34.192Z,18.70
2022-08-23T23:26:03.732Z,18.70
2022-08-23T23:28:31.248Z,18.60
2022-08-23T23:30:59.288Z,18.60
2022-08-23T23:33:27.920Z,18.60
2022-08-23T23:35:55.654Z,18.60
2022-08-23T23:38:23.212Z,18.60
2022-08-23T23:40:50.520Z,18.50
2022-08-23T23:43:17.936Z,18.50
2022-08-23T23:45:45.597Z,18.50
2022-08-23T23:48:13.270Z,18.50
2022-08-23T23:50:45.135Z,18.40
2022-08-23T23:53:15.379Z,18.40
2022-08-23T23:55:43.325Z,18.40
2022-08-23T23:58:10.711Z,18.40
